sensor_id;sensor_type;location;lat;lon;timestamp;pressure;altitude;pressure_sealevel;temperature;humidity
78383;BME280;67668;52.294;4.692;2023-06-10T00:03:16;101601.03;;;24.07;44.15
78383;BME280;67668;52.294;4.692;2023-06-10T00:05:41;101589.59;;;24.05;44.43
78383;BME280;67668;52.294;4.692;2023-06-10T00:08:07;101592.72;;;24.02;43.56
78383;BME280;67668;52.294;4.692;2023-06-10T00:10:36;101592.31;;;23.99;44.47
78383;BME280;67668;52.294;4.692;2023-06-10T00:13:03;101592.75;;;23.96;44.48
78383;BME280;67668;52.294;4.692;2023-06-10T00:15:29;101601.06;;;23.94;44.37
78383;BME280;67668;52.294;4.692;2023-06-10T00:17:55;101598.78;;;23.91;44.92
78383;BME280;67668;52.294;4.692;2023-06-10T00:20:21;101595.47;;;23.89;44.73
78383;BME280;67668;52.294;4.692;2023-06-10T00:22:50;101601.28;;;23.86;44.62
78383;BME280;67668;52.294;4.692;2023-06-10T00:25:16;101596.09;;;23.85;45.06
78383;BME280;67668;52.294;4.692;2023-06-10T00:27:42;101595.47;;;23.83;45.02
78383;BME280;67668;52.294;4.692;2023-06-10T00:30:07;101597.75;;;23.79;45.13
78383;BME280;67668;52.294;4.692;2023-06-10T00:32:34;101595.47;;;23.76;44.83
78383;BME280;67668;52.294;4.692;2023-06-10T00:34:59;101588.59;;;23.74;45.13
78383;BME280;67668;52.294;4.692;2023-06-10T00:37:25;101590.88;;;23.70;44.92
78383;BME280;67668;52.294;4.692;2023-06-10T00:39:51;101594.84;;;23.67;44.75
78383;BME280;67668;52.294;4.692;2023-06-10T00:42:16;101598.81;;;23.65;45.05
78383;BME280;67668;52.294;4.692;2023-06-10T00:44:42;101592.97;;;23.61;45.13
78383;BME280;67668;52.294;4.692;2023-06-10T00:47:07;101588.84;;;23.59;45.22
78383;BME280;67668;52.294;4.692;2023-06-10T00:49:33;101593.59;;;23.57;44.91
78383;BME280;67668;52.294;4.692;2023-06-10T00:52:00;101591.31;;;23.54;45.11
78383;BME280;67668;52.294;4.692;2023-06-10T00:54:26;101595.28;;;23.51;45.14
78383;BME280;67668;52.294;4.692;2023-06-10T00:56:53;101601.09;;;23.48;45.20
78383;BME280;67668;52.294;4.692;2023-06-10T00:59:19;101601.50;;;23.45;45.12
78383;BME280;67668;52.294;4.692;2023-06-10T01:01:45;101602.78;;;23.43;45.62
78383;BME280;67668;52.294;4.692;2023-06-10T01:04:12;101593.19;;;23.40;45.57
78383;BME280;67668;52.294;4.692;2023-06-10T01:09:32;101593.97;;;23.34;45.24
78383;BME280;67668;52.294;4.692;2023-06-10T01:12:05;101591.69;;;23.31;45.51
78383;BME280;67668;52.294;4.692;2023-06-10T01:14:35;101597.53;;;23.28;44.57
78383;BME280;67668;52.294;4.692;2023-06-10T01:17:01;101598.78;;;23.26;45.20
78383;BME280;67668;52.294;4.692;2023-06-10T01:19:26;101594.81;;;23.22;45.50
78383;BME280;67668;52.294;4.692;2023-06-10T01:21:53;101594.19;;;23.20;45.63
78383;BME280;67668;52.294;4.692;2023-06-10T01:24:20;101597.31;;;23.16;45.71
78383;BME280;67668;52.294;4.692;2023-06-10T01:26:49;101603.09;;;23.13;45.67
78383;BME280;67668;52.294;4.692;2023-06-10T01:29:18;101598.94;;;23.11;45.90
78383;BME280;67668;52.294;4.692;2023-06-10T01:31:48;101604.75;;;23.08;45.84
78383;BME280;67668;52.294;4.692;2023-06-10T01:34:17;101600.59;;;23.05;46.01
78383;BME280;67668;52.294;4.692;2023-06-10T01:36:48;101604.56;;;23.03;46.09
78383;BME280;67668;52.294;4.692;2023-06-10T01:39:17;101602.47;;;22.98;45.81
78383;BME280;67668;52.294;4.692;2023-06-10T01:41:43;101605.34;;;22.97;45.96
78383;BME280;67668;52.294;4.692;2023-06-10T01:44:10;101597.66;;;22.94;45.52
78383;BME280;67668;52.294;4.692;2023-06-10T01:46:35;101601.00;;;22.89;45.88
78383;BME280;67668;52.294;4.692;2023-06-10T01:49:01;101600.34;;;22.87;45.92
78383;BME280;67668;52.294;4.692;2023-06-10T01:51:26;101604.50;;;22.83;45.69
78383;BME280;67668;52.294;4.692;2023-06-10T01:53:51;101601.38;;;22.80;46.01
78383;BME280;67668;52.294;4.692;2023-06-10T01:56:17;101605.28;;;22.77;45.77
78383;BME280;67668;52.294;4.692;2023-06-10T01:58:45;101593.88;;;22.75;46.30
78383;BME280;67668;52.294;4.692;2023-06-10T02:01:11;101598.00;;;22.71;45.29
78383;BME280;67668;52.294;4.692;2023-06-10T02:03:36;101609.88;;;22.70;46.12
78383;BME280;67668;52.294;4.692;2023-06-10T02:06:01;101607.53;;;22.67;46.33
78383;BME280;67668;52.294;4.692;2023-06-10T02:08:27;101602.53;;;22.64;46.30
78383;BME280;67668;52.294;4.692;2023-06-10T02:10:53;101608.31;;;22.61;46.33
78383;BME280;67668;52.294;4.692;2023-06-10T02:13:18;101596.91;;;22.59;46.54
78383;BME280;67668;52.294;4.692;2023-06-10T02:15:44;101602.72;;;22.56;46.56
78383;BME280;67668;52.294;4.692;2023-06-10T02:18:09;101599.59;;;22.52;46.51
78383;BME280;67668;52.294;4.692;2023-06-10T02:20:37;101600.00;;;22.49;46.71
78383;BME280;67668;52.294;4.692;2023-06-10T02:23:03;101607.66;;;22.46;46.73
78383;BME280;67668;52.294;4.692;2023-06-10T02:25:28;101612.41;;;22.44;47.02
78383;BME280;67668;52.294;4.692;2023-06-10T02:27:54;101608.47;;;22.40;46.37
78383;BME280;67668;52.294;4.692;2023-06-10T02:30:19;101611.56;;;22.37;46.43
78383;BME280;67668;52.294;4.692;2023-06-10T02:32:44;101610.28;;;22.33;46.90
78383;BME280;67668;52.294;4.692;2023-06-10T02:35:14;101616.91;;;22.30;46.90
78383;BME280;67668;52.294;4.692;2023-06-10T02:37:40;101620.22;;;22.26;47.16
78383;BME280;67668;52.294;4.692;2023-06-10T02:40:06;101618.53;;;22.25;47.29
78383;BME280;67668;52.294;4.692;2023-06-10T02:42:32;101618.94;;;22.22;46.70
78383;BME280;67668;52.294;4.692;2023-06-10T02:44:57;101618.72;;;22.17;47.26
78383;BME280;67668;52.294;4.692;2023-06-10T02:47:23;101615.34;;;22.14;47.05
78383;BME280;67668;52.294;4.692;2023-06-10T02:49:48;101614.13;;;22.10;47.31
78383;BME280;67668;52.294;4.692;2023-06-10T02:52:13;101617.19;;;22.07;46.83
78383;BME280;67668;52.294;4.692;2023-06-10T02:54:39;101619.25;;;22.05;47.24
78383;BME280;67668;52.294;4.692;2023-06-10T02:57:05;101609.88;;;22.01;47.19
78383;BME280;67668;52.294;4.692;2023-06-10T02:59:31;101613.81;;;21.99;46.75
78383;BME280;67668;52.294;4.692;2023-06-10T03:01:56;101612.53;;;21.95;47.11
78383;BME280;67668;52.294;4.692;2023-06-10T03:04:22;101616.47;;;21.92;47.40
78383;BME280;67668;52.294;4.692;2023-06-10T03:06:48;101619.34;;;21.91;47.90
78383;BME280;67668;52.294;4.692;2023-06-10T03:09:14;101614.31;;;21.88;47.92
78383;BME280;67668;52.294;4.692;2023-06-10T03:11:39;101613.69;;;21.86;48.09
78383;BME280;67668;52.294;4.692;2023-06-10T03:14:05;101618.47;;;21.84;48.13
78383;BME280;67668;52.294;4.692;2023-06-10T03:16:30;101613.25;;;21.82;47.93
78383;BME280;67668;52.294;4.692;2023-06-10T03:18:56;101620.06;;;21.78;48.12
78383;BME280;67668;52.294;4.692;2023-06-10T03:21:24;101621.28;;;21.76;47.72
78383;BME280;67668;52.294;4.692;2023-06-10T03:23:49;101617.97;;;21.74;48.27
78383;BME280;67668;52.294;4.692;2023-06-10T03:26:15;101615.00;;;21.69;47.87
78383;BME280;67668;52.294;4.692;2023-06-10T03:28:41;101615.22;;;21.67;47.81
78383;BME280;67668;52.294;4.692;2023-06-10T03:31:06;101616.63;;;21.63;48.23
78383;BME280;67668;52.294;4.692;2023-06-10T03:33:32;101617.88;;;21.60;48.09
78383;BME280;67668;52.294;4.692;2023-06-10T03:35:58;101620.75;;;21.59;48.30
78383;BME280;67668;52.294;4.692;2023-06-10T03:38:24;101624.84;;;21.55;48.01
78383;BME280;67668;52.294;4.692;2023-06-10T03:40:49;101627.09;;;21.51;48.11
78383;BME280;67668;52.294;4.692;2023-06-10T03:43:14;101628.31;;;21.49;48.46
78383;BME280;67668;52.294;4.692;2023-06-10T03:45:40;101637.41;;;21.48;48.70
78383;BME280;67668;52.294;4.692;2023-06-10T03:48:06;101633.25;;;21.45;48.66
78383;BME280;67668;52.294;4.692;2023-06-10T03:50:33;101631.78;;;21.43;47.89
78383;BME280;67668;52.294;4.692;2023-06-10T03:52:59;101634.88;;;21.40;48.04
78383;BME280;67668;52.294;4.692;2023-06-10T03:55:24;101632.75;;;21.35;47.42
78383;BME280;67668;52.294;4.692;2023-06-10T03:57:50;101635.84;;;21.32;48.28
78383;BME280;67668;52.294;4.692;2023-06-10T04:00:16;101633.34;;;21.31;48.82
78383;BME280;67668;52.294;4.692;2023-06-10T04:02:43;101639.28;;;21.26;48.44
78383;BME280;67668;52.294;4.692;2023-06-10T04:05:16;101639.84;;;21.22;48.34
78383;BME280;67668;52.294;4.692;2023-06-10T04:07:42;101639.22;;;21.20;48.22
78383;BME280;67668;52.294;4.692;2023-06-10T04:10:10;101642.09;;;21.18;48.41
78383;BME280;67668;52.294;4.692;2023-06-10T04:12:37;101648.53;;;21.17;48.79
78383;BME280;67668;52.294;4.692;2023-06-10T04:15:05;101642.47;;;21.15;48.93
78383;BME280;67668;52.294;4.692;2023-06-10T04:17:31;101644.53;;;21.13;48.82
78383;BME280;67668;52.294;4.692;2023-06-10T04:19:57;101644.72;;;21.11;49.14
78383;BME280;67668;52.294;4.692;2023-06-10T04:22:23;101653.63;;;21.12;48.86
78383;BME280;67668;52.294;4.692;2023-06-10T04:24:48;101649.63;;;21.08;48.68
78383;BME280;67668;52.294;4.692;2023-06-10T04:27:14;101655.22;;;21.06;49.23
78383;BME280;67668;52.294;4.692;2023-06-10T04:29:39;101663.28;;;21.06;48.99
78383;BME280;67668;52.294;4.692;2023-06-10T04:32:06;101656.59;;;21.02;48.73
78383;BME280;67668;52.294;4.692;2023-06-10T04:34:33;101654.13;;;21.01;49.43
78383;BME280;67668;52.294;4.692;2023-06-10T04:36:58;101660.31;;;21.01;49.55
78383;BME280;67668;52.294;4.692;2023-06-10T04:39:24;101659.50;;;21.01;49.32
78383;BME280;67668;52.294;4.692;2023-06-10T04:41:49;101663.84;;;21.02;49.53
78383;BME280;67668;52.294;4.692;2023-06-10T04:44:15;101658.47;;;21.02;49.44
78383;BME280;67668;52.294;4.692;2023-06-10T04:46:40;101659.69;;;20.99;49.52
78383;BME280;67668;52.294;4.692;2023-06-10T04:49:05;101666.75;;;21.00;50.02
78383;BME280;67668;52.294;4.692;2023-06-10T04:51:31;101665.69;;;21.01;49.65
78383;BME280;67668;52.294;4.692;2023-06-10T04:53:59;101665.69;;;21.01;50.14
78383;BME280;67668;52.294;4.692;2023-06-10T04:56:29;101667.19;;;21.04;50.16
78383;BME280;67668;52.294;4.692;2023-06-10T04:58:56;101665.34;;;21.04;49.70
78383;BME280;67668;52.294;4.692;2023-06-10T05:01:22;101666.16;;;21.05;49.55
78383;BME280;67668;52.294;4.692;2023-06-10T05:03:47;101664.31;;;21.05;49.96
78383;BME280;67668;52.294;4.692;2023-06-10T05:06:12;101670.53;;;21.06;49.42
78383;BME280;67668;52.294;4.692;2023-06-10T05:08:38;101666.16;;;21.05;49.58
78383;BME280;67668;52.294;4.692;2023-06-10T05:11:03;101659.75;;;21.06;49.72
78383;BME280;67668;52.294;4.692;2023-06-10T05:13:29;101666.81;;;21.07;49.87
78383;BME280;67668;52.294;4.692;2023-06-10T05:15:54;101665.78;;;21.08;49.31
78383;BME280;67668;52.294;4.692;2023-06-10T05:18:20;101657.56;;;21.09;49.51
78383;BME280;67668;52.294;4.692;2023-06-10T05:20:46;101664.41;;;21.12;50.03
78383;BME280;67668;52.294;4.692;2023-06-10T05:23:12;101655.94;;;21.15;48.94
78383;BME280;67668;52.294;4.692;2023-06-10T05:25:37;101662.63;;;21.19;49.52
78383;BME280;67668;52.294;4.692;2023-06-10T05:28:02;101662.44;;;21.21;49.70
78383;BME280;67668;52.294;4.692;2023-06-10T05:30:28;101659.38;;;21.24;49.38
78383;BME280;67668;52.294;4.692;2023-06-10T05:32:53;101668.75;;;21.28;49.26
78383;BME280;67668;52.294;4.692;2023-06-10T05:35:19;101666.69;;;21.30;48.72
78383;BME280;67668;52.294;4.692;2023-06-10T05:37:44;101671.69;;;21.33;49.26
78383;BME280;67668;52.294;4.692;2023-06-10T05:40:10;101675.84;;;21.35;49.36
78383;BME280;67668;52.294;4.692;2023-06-10T05:42:36;101671.13;;;21.37;49.59
78383;BME280;67668;52.294;4.692;2023-06-10T05:45:02;101669.69;;;21.41;49.20
78383;BME280;67668;52.294;4.692;2023-06-10T05:47:27;101671.81;;;21.46;49.60
78383;BME280;67668;52.294;4.692;2023-06-10T05:49:53;101670.78;;;21.47;49.02
78383;BME280;67668;52.294;4.692;2023-06-10T05:52:18;101673.94;;;21.50;49.59
78383;BME280;67668;52.294;4.692;2023-06-10T05:54:44;101676.25;;;21.53;49.44
78383;BME280;67668;52.294;4.692;2023-06-10T05:57:09;101677.88;;;21.54;49.20
78383;BME280;67668;52.294;4.692;2023-06-10T05:59:35;101675.00;;;21.56;48.91
78383;BME280;67668;52.294;4.692;2023-06-10T06:02:00;101683.72;;;21.58;49.78
78383;BME280;67668;52.294;4.692;2023-06-10T06:04:26;101676.31;;;21.60;48.84
78383;BME280;67668;52.294;4.692;2023-06-10T06:06:53;101684.00;;;21.63;48.73
78383;BME280;67668;52.294;4.692;2023-06-10T06:09:19;101683.59;;;21.66;48.86
78383;BME280;67668;52.294;4.692;2023-06-10T06:11:44;101676.16;;;21.68;49.58
78383;BME280;67668;52.294;4.692;2023-06-10T06:14:09;101673.28;;;21.70;48.44
78383;BME280;67668;52.294;4.692;2023-06-10T06:16:35;101685.34;;;21.74;49.95
78383;BME280;67668;52.294;4.692;2023-06-10T06:19:00;101677.03;;;21.75;48.93
78383;BME280;67668;52.294;4.692;2023-06-10T06:21:26;101688.09;;;21.80;49.70
78383;BME280;67668;52.294;4.692;2023-06-10T06:23:51;101680.44;;;21.84;48.81
78383;BME280;67668;52.294;4.692;2023-06-10T06:26:17;101680.25;;;21.85;48.54
78383;BME280;67668;52.294;4.692;2023-06-10T06:28:43;101681.72;;;21.88;48.76
78383;BME280;67668;52.294;4.692;2023-06-10T06:31:08;101683.03;;;21.92;48.55
78383;BME280;67668;52.294;4.692;2023-06-10T06:33:34;101684.31;;;21.96;48.68
78383;BME280;67668;52.294;4.692;2023-06-10T06:35:59;101688.06;;;22.01;48.74
78383;BME280;67668;52.294;4.692;2023-06-10T06:38:26;101690.63;;;22.09;49.21
78383;BME280;67668;52.294;4.692;2023-06-10T06:40:51;101682.78;;;22.14;48.12
78383;BME280;67668;52.294;4.692;2023-06-10T06:43:16;101689.44;;;22.19;47.66
78383;BME280;67668;52.294;4.692;2023-06-10T06:45:43;101692.41;;;22.24;47.95
78383;BME280;67668;52.294;4.692;2023-06-10T06:48:09;101684.34;;;22.30;47.92
78383;BME280;67668;52.294;4.692;2023-06-10T06:50:34;101683.34;;;22.38;48.04
78383;BME280;67668;52.294;4.692;2023-06-10T06:53:00;101683.38;;;22.44;47.59
78383;BME280;67668;52.294;4.692;2023-06-10T06:55:25;101681.16;;;22.54;48.60
78383;BME280;67668;52.294;4.692;2023-06-10T06:57:50;101686.88;;;22.66;49.52
78383;BME280;67668;52.294;4.692;2023-06-10T07:00:16;101681.94;;;22.76;48.63
78383;BME280;67668;52.294;4.692;2023-06-10T07:02:41;101678.94;;;23.05;47.84
78383;BME280;67668;52.294;4.692;2023-06-10T07:05:07;101685.78;;;23.14;47.26
78383;BME280;67668;52.294;4.692;2023-06-10T07:07:33;101682.50;;;23.19;47.57
78383;BME280;67668;52.294;4.692;2023-06-10T07:09:58;101686.66;;;23.22;46.52
78383;BME280;67668;52.294;4.692;2023-06-10T07:12:23;101686.66;;;23.28;46.92
78383;BME280;67668;52.294;4.692;2023-06-10T07:14:50;101686.69;;;23.35;46.70
78383;BME280;67668;52.294;4.692;2023-06-10T07:17:16;101684.88;;;23.42;46.33
78383;BME280;67668;52.294;4.692;2023-06-10T07:19:43;101684.47;;;23.51;46.34
78383;BME280;67668;52.294;4.692;2023-06-10T07:22:08;101681.75;;;23.58;45.40
78383;BME280;67668;52.294;4.692;2023-06-10T07:24:35;101687.59;;;23.68;46.41
78383;BME280;67668;52.294;4.692;2023-06-10T07:27:00;101696.31;;;23.77;45.97
78383;BME280;67668;52.294;4.692;2023-06-10T07:29:26;101691.97;;;23.89;46.43
78383;BME280;67668;52.294;4.692;2023-06-10T07:31:51;101696.53;;;24.01;45.00
78383;BME280;67668;52.294;4.692;2023-06-10T07:34:19;101690.53;;;24.12;45.37
78383;BME280;67668;52.294;4.692;2023-06-10T07:36:44;101689.88;;;24.24;44.73
78383;BME280;67668;52.294;4.692;2023-06-10T07:39:10;101700.91;;;24.35;45.42
78383;BME280;67668;52.294;4.692;2023-06-10T07:41:36;101696.72;;;24.46;44.31
78383;BME280;67668;52.294;4.692;2023-06-10T07:44:02;101691.69;;;24.56;44.05
78383;BME280;67668;52.294;4.692;2023-06-10T07:46:27;101699.97;;;24.67;43.78
78383;BME280;67668;52.294;4.692;2023-06-10T07:48:54;101690.38;;;24.78;42.76
78383;BME280;67668;52.294;4.692;2023-06-10T07:51:21;101697.19;;;24.94;43.37
78383;BME280;67668;52.294;4.692;2023-06-10T07:53:46;101703.38;;;25.07;41.79
78383;BME280;67668;52.294;4.692;2023-06-10T07:56:12;101706.22;;;25.19;41.58
78383;BME280;67668;52.294;4.692;2023-06-10T07:58:37;101697.22;;;25.32;40.64
78383;BME280;67668;52.294;4.692;2023-06-10T08:01:03;101697.13;;;25.45;41.12
78383;BME280;67668;52.294;4.692;2023-06-10T08:03:28;101698.72;;;25.59;41.39
78383;BME280;67668;52.294;4.692;2023-06-10T08:05:53;101701.97;;;25.74;41.88
78383;BME280;67668;52.294;4.692;2023-06-10T08:08:19;101700.56;;;25.90;42.03
78383;BME280;67668;52.294;4.692;2023-06-10T08:10:44;101702.34;;;26.02;42.20
78383;BME280;67668;52.294;4.692;2023-06-10T08:13:10;101696.19;;;26.13;40.50
78383;BME280;67668;52.294;4.692;2023-06-10T08:15:35;101700.47;;;26.28;41.24
78383;BME280;67668;52.294;4.692;2023-06-10T08:18:00;101699.50;;;26.40;40.33
78383;BME280;67668;52.294;4.692;2023-06-10T08:20:26;101699.94;;;26.55;40.19
78383;BME280;67668;52.294;4.692;2023-06-10T08:22:51;101691.19;;;26.71;39.98
78383;BME280;67668;52.294;4.692;2023-06-10T08:25:17;101685.41;;;26.86;39.89
78383;BME280;67668;52.294;4.692;2023-06-10T08:27:42;101691.50;;;27.00;39.71
78383;BME280;67668;52.294;4.692;2023-06-10T08:30:08;101692.28;;;27.18;39.27
78383;BME280;67668;52.294;4.692;2023-06-10T08:32:36;101691.63;;;27.35;39.64
78383;BME280;67668;52.294;4.692;2023-06-10T08:35:02;101694.81;;;27.50;38.24
78383;BME280;67668;52.294;4.692;2023-06-10T08:37:28;101688.69;;;27.66;38.10
78383;BME280;67668;52.294;4.692;2023-06-10T08:39:54;101692.59;;;27.82;37.76
78383;BME280;67668;52.294;4.692;2023-06-10T08:42:25;101696.75;;;27.96;37.97
78383;BME280;67668;52.294;4.692;2023-06-10T08:44:54;101696.09;;;28.12;36.43
78383;BME280;67668;52.294;4.692;2023-06-10T08:47:22;101689.34;;;28.26;36.02
78383;BME280;67668;52.294;4.692;2023-06-10T08:49:48;101697.28;;;28.39;35.38
78383;BME280;67668;52.294;4.692;2023-06-10T08:52:16;101694.03;;;28.54;34.73
78383;BME280;67668;52.294;4.692;2023-06-10T08:54:47;101694.63;;;28.67;34.64
78383;BME280;67668;52.294;4.692;2023-06-10T08:57:15;101694.69;;;28.84;33.97
78383;BME280;67668;52.294;4.692;2023-06-10T08:59:42;101698.59;;;29.00;34.04
78383;BME280;67668;52.294;4.692;2023-06-10T09:02:08;101695.91;;;29.16;33.61
78383;BME280;67668;52.294;4.692;2023-06-10T09:04:34;101699.66;;;29.27;32.78
78383;BME280;67668;52.294;4.692;2023-06-10T09:07:02;101705.66;;;29.41;33.34
78383;BME280;67668;52.294;4.692;2023-06-10T09:09:28;101696.31;;;29.53;31.70
78383;BME280;67668;52.294;4.692;2023-06-10T09:11:54;101700.38;;;29.67;31.88
78383;BME280;67668;52.294;4.692;2023-06-10T09:14:19;101699.59;;;29.84;32.80
78383;BME280;67668;52.294;4.692;2023-06-10T09:16:45;101700.09;;;29.97;32.43
78383;BME280;67668;52.294;4.692;2023-06-10T09:19:12;101700.06;;;30.14;31.64
78383;BME280;67668;52.294;4.692;2023-06-10T09:21:38;101700.22;;;30.24;30.99
78383;BME280;67668;52.294;4.692;2023-06-10T09:24:05;101709.41;;;30.35;30.81
78383;BME280;67668;52.294;4.692;2023-06-10T09:26:30;101715.09;;;30.50;31.28
78383;BME280;67668;52.294;4.692;2023-06-10T09:29:04;101710.91;;;30.64;30.96
78383;BME280;67668;52.294;4.692;2023-06-10T09:31:30;101706.16;;;30.76;29.90
78383;BME280;67668;52.294;4.692;2023-06-10T09:34:10;101708.22;;;30.86;30.04
78383;BME280;67668;52.294;4.692;2023-06-10T09:36:36;101707.56;;;31.00;29.63
78383;BME280;67668;52.294;4.692;2023-06-10T09:39:03;101705.22;;;31.09;29.54
78383;BME280;67668;52.294;4.692;2023-06-10T09:41:35;101704.53;;;31.23;30.11
78383;BME280;67668;52.294;4.692;2023-06-10T09:44:01;101695.88;;;31.32;27.85
78383;BME280;67668;52.294;4.692;2023-06-10T09:46:31;101695.16;;;31.41;28.78
78383;BME280;67668;52.294;4.692;2023-06-10T09:49:00;101696.97;;;31.57;29.50
78383;BME280;67668;52.294;4.692;2023-06-10T09:51:25;101696.78;;;31.69;29.23
78383;BME280;67668;52.294;4.692;2023-06-10T09:53:51;101707.28;;;31.82;30.13
78383;BME280;67668;52.294;4.692;2023-06-10T09:56:17;101704.16;;;32.00;29.88
78383;BME280;67668;52.294;4.692;2023-06-10T09:58:42;101711.97;;;32.18;28.94
78383;BME280;67668;52.294;4.692;2023-06-10T10:01:13;101711.00;;;32.35;28.12
78383;BME280;67668;52.294;4.692;2023-06-10T10:03:51;101700.91;;;32.45;27.20
78383;BME280;67668;52.294;4.692;2023-06-10T10:06:19;101711.91;;;32.55;27.47
78383;BME280;67668;52.294;4.692;2023-06-10T10:08:46;101710.09;;;32.66;27.16
78383;BME280;67668;52.294;4.692;2023-06-10T10:11:12;101703.84;;;32.86;28.09
78383;BME280;67668;52.294;4.692;2023-06-10T10:13:39;101706.94;;;32.99;27.12
78383;BME280;67668;52.294;4.692;2023-06-10T10:16:16;101703.69;;;33.12;26.28
78383;BME280;67668;52.294;4.692;2023-06-10T10:18:59;101700.44;;;33.25;26.56
78383;BME280;67668;52.294;4.692;2023-06-10T10:21:30;101703.19;;;33.36;27.40
78383;BME280;67668;52.294;4.692;2023-06-10T10:24:07;101701.84;;;33.43;26.03
78383;BME280;67668;52.294;4.692;2023-06-10T10:26:34;101703.28;;;33.61;27.40
78383;BME280;67668;52.294;4.692;2023-06-10T10:29:05;101696.66;;;33.72;26.10
78383;BME280;67668;52.294;4.692;2023-06-10T10:31:34;101692.81;;;33.83;26.25
78383;BME280;67668;52.294;4.692;2023-06-10T10:34:06;101696.09;;;34.00;26.68
78383;BME280;67668;52.294;4.692;2023-06-10T10:36:32;101693.34;;;34.10;25.81
78383;BME280;67668;52.294;4.692;2023-06-10T10:38:57;101697.16;;;34.24;28.81
78383;BME280;67668;52.294;4.692;2023-06-10T10:41:24;101681.22;;;34.32;26.98
78383;BME280;67668;52.294;4.692;2023-06-10T10:43:52;101687.47;;;34.47;27.67
78383;BME280;67668;52.294;4.692;2023-06-10T10:46:18;101692.94;;;34.57;25.16
78383;BME280;67668;52.294;4.692;2023-06-10T10:48:44;101686.06;;;34.70;27.20
78383;BME280;67668;52.294;4.692;2023-06-10T10:51:10;101683.00;;;34.76;24.51
78383;BME280;67668;52.294;4.692;2023-06-10T10:53:39;101692.81;;;34.88;25.13
78383;BME280;67668;52.294;4.692;2023-06-10T10:56:07;101680.94;;;34.97;26.66
78383;BME280;67668;52.294;4.692;2023-06-10T10:58:35;101679.50;;;35.10;24.25
78383;BME280;67668;52.294;4.692;2023-06-10T11:01:10;101680.56;;;35.19;24.65
78383;BME280;67668;52.294;4.692;2023-06-10T11:03:42;101677.94;;;35.38;25.49
78383;BME280;67668;52.294;4.692;2023-06-10T11:06:13;101677.28;;;35.51;23.66
78383;BME280;67668;52.294;4.692;2023-06-10T11:11:24;101678.56;;;35.68;23.10
78383;BME280;67668;52.294;4.692;2023-06-10T11:16:42;101679.00;;;35.81;21.51
78383;BME280;67668;52.294;4.692;2023-06-10T11:19:08;101677.78;;;35.92;23.40
78383;BME280;67668;52.294;4.692;2023-06-10T11:21:56;101678.53;;;36.02;23.80
78383;BME280;67668;52.294;4.692;2023-06-10T11:24:22;101673.53;;;36.09;22.76
78383;BME280;67668;52.294;4.692;2023-06-10T11:26:48;101671.75;;;36.18;23.12
78383;BME280;67668;52.294;4.692;2023-06-10T11:29:14;101675.63;;;36.17;22.62
78383;BME280;67668;52.294;4.692;2023-06-10T11:31:45;101673.34;;;36.24;21.51
78383;BME280;67668;52.294;4.692;2023-06-10T11:34:12;101667.81;;;36.24;20.97
78383;BME280;67668;52.294;4.692;2023-06-10T11:36:42;101666.13;;;36.28;23.37
78383;BME280;67668;52.294;4.692;2023-06-10T11:39:10;101666.88;;;36.34;23.41
78383;BME280;67668;52.294;4.692;2023-06-10T11:41:37;101660.72;;;36.42;21.81
78383;BME280;67668;52.294;4.692;2023-06-10T11:44:07;101654.44;;;36.60;23.50
78383;BME280;67668;52.294;4.692;2023-06-10T11:46:33;101653.72;;;36.73;24.12
78383;BME280;67668;52.294;4.692;2023-06-10T11:48:59;101651.41;;;36.81;22.94
78383;BME280;67668;52.294;4.692;2023-06-10T11:51:26;101659.63;;;36.86;23.51
78383;BME280;67668;52.294;4.692;2023-06-10T11:53:53;101660.28;;;36.96;22.77
78383;BME280;67668;52.294;4.692;2023-06-10T11:56:26;101660.50;;;37.00;22.39
78383;BME280;67668;52.294;4.692;2023-06-10T11:59:03;101654.03;;;37.09;22.65
78383;BME280;67668;52.294;4.692;2023-06-10T12:01:33;101653.75;;;37.11;22.44
78383;BME280;67668;52.294;4.692;2023-06-10T12:04:13;101649.72;;;37.22;22.08
78383;BME280;67668;52.294;4.692;2023-06-10T12:06:49;101646.47;;;37.34;22.11
78383;BME280;67668;52.294;4.692;2023-06-10T12:09:29;101646.41;;;37.39;20.99
78383;BME280;67668;52.294;4.692;2023-06-10T12:12:02;101639.38;;;37.46;22.96
78383;BME280;67668;52.294;4.692;2023-06-10T12:17:42;101639.97;;;37.62;21.72
78383;BME280;67668;52.294;4.692;2023-06-10T12:20:23;101633.91;;;37.60;21.02
78383;BME280;67668;52.294;4.692;2023-06-10T12:22:49;101631.97;;;37.60;20.87
78383;BME280;67668;52.294;4.692;2023-06-10T12:25:14;101642.38;;;37.50;21.72
78383;BME280;67668;52.294;4.692;2023-06-10T12:27:50;101625.94;;;37.40;20.76
78383;BME280;67668;52.294;4.692;2023-06-10T12:30:22;101630.13;;;37.37;21.37
78383;BME280;67668;52.294;4.692;2023-06-10T12:32:48;101617.00;;;37.48;20.48
78383;BME280;67668;52.294;4.692;2023-06-10T12:35:18;101633.19;;;37.54;21.78
78383;BME280;67668;52.294;4.692;2023-06-10T12:38:03;101631.13;;;37.60;21.82
78383;BME280;67668;52.294;4.692;2023-06-10T12:40:34;101628.31;;;37.65;22.01
78383;BME280;67668;52.294;4.692;2023-06-10T12:43:00;101625.81;;;37.63;20.49
78383;BME280;67668;52.294;4.692;2023-06-10T12:45:30;101628.81;;;37.67;20.42
78383;BME280;67668;52.294;4.692;2023-06-10T12:48:17;101630.63;;;37.58;19.91
78383;BME280;67668;52.294;4.692;2023-06-10T12:50:43;101618.88;;;37.66;20.92
78383;BME280;67668;52.294;4.692;2023-06-10T12:53:10;101617.75;;;37.67;22.16
78383;BME280;67668;52.294;4.692;2023-06-10T12:55:36;101628.31;;;37.65;20.90
78383;BME280;67668;52.294;4.692;2023-06-10T12:58:02;101626.34;;;37.65;19.70
78383;BME280;67668;52.294;4.692;2023-06-10T13:00:28;101631.06;;;37.65;21.93
78383;BME280;67668;52.294;4.692;2023-06-10T13:03:00;101628.81;;;37.67;21.06